Terminal Aerodrome Forecast
Issued by NWS Pueblo, CO

Home | Current Version | Previous Version | Text Only | Print | Product List | Glossary On
Versions: 1 2 3 4 5 6 7 8 9 10 11 12 13 14 15 16 17 18 19 20 21 22 23 24 25 26 27 28 29 30 31 32 33 34 35 36 37 38 39 40 41 42 43 44 45 46 47 48
668
FTUS45 KPUB 260535
TAFCOS
TAF
KCOS 260535Z 2606/2706 13009KT P6SM FEW250
     FM261000 35025G35KT P6SM BKN200
     FM261300 35028G40KT P6SM SCT100 SCT200
     FM261800 01020G30KT P6SM SCT100 SCT200
     FM262200 01016KT P6SM SCT060 BKN110
     FM270100 02007KT P6SM SCT120=

USA.gov is the U.S. government's official web portal to all federal, state and local government web resources and services.